createdAt,value
2022-12-03T00:01:14.302Z,-2.05
2022-12-03T00:03:41.013Z,-2.03
2022-12-03T00:06:07.922Z,-2.09
2022-12-03T00:08:35.041Z,-1.98
2022-12-03T00:11:01.550Z,-1.89
2022-12-03T00:13:28.080Z,-2.03
2022-12-03T00:15:54.837Z,-2.01
2022-12-03T00:18:21.425Z,-2.03
2022-12-03T00:20:47.994Z,-2.11
2022-12-03T00:23:14.563Z,-2.05
2022-12-03T00:25:41.108Z,-1.95
2022-12-03T00:28:07.743Z,-2.04
2022-12-03T00:30:34.343Z,-2.01
2022-12-03T00:33:00.829Z,-2.11
2022-12-03T00:35:27.370Z,-2.09
2022-12-03T00:37:54.800Z,-2.07
2022-12-03T00:40:21.410Z,-2.01
2022-12-03T00:42:47.933Z,-2.06
2022-12-03T00:45:14.526Z,-2.06
2022-12-03T00:47:41.014Z,-2.03
2022-12-03T00:50:08.335Z,-2.04
2022-12-03T00:52:34.934Z,-2.09
2022-12-03T00:55:01.505Z,-2.05
2022-12-03T00:57:28.164Z,-1.98
2022-12-03T00:59:54.754Z,-2.07
2022-12-03T01:02:21.616Z,-2.08
2022-12-03T01:04:48.377Z,-2.03
2022-12-03T01:07:14.957Z,-2.17
2022-12-03T01:09:41.432Z,-2.09
2022-12-03T01:12:07.908Z,-1.89
2022-12-03T01:14:34.457Z,-2.14
2022-12-03T01:17:00.996Z,-2.10
2022-12-03T01:19:27.592Z,-2.04
2022-12-03T01:21:55.509Z,-2.12
2022-12-03T01:24:22.486Z,-2.09
2022-12-03T01:26:49.024Z,-2.06
2022-12-03T01:29:15.726Z,-2.16
2022-12-03T01:32:01.124Z,-2.09
2022-12-03T01:34:27.679Z,-2.09
2022-12-03T01:36:54.227Z,-2.15
2022-12-03T01:39:20.958Z,-2.06
2022-12-03T01:41:49.606Z,-2.15
2022-12-03T01:44:28.590Z,-2.11
2022-12-03T01:46:57.132Z,-2.13
2022-12-03T01:49:27.533Z,-2.18
2022-12-03T01:51:55.383Z,-2.16
2022-12-03T01:54:27.345Z,-2.19
2022-12-03T01:56:55.149Z,-2.17
2022-12-03T01:59:26.193Z,-2.22
2022-12-03T02:01:52.849Z,-2.11
2022-12-03T02:04:21.971Z,-2.11
2022-12-03T02:06:48.693Z,-2.11
2022-12-03T02:09:15.146Z,-2.19
2022-12-03T02:11:47.365Z,-2.24
2022-12-03T02:14:18.265Z,-2.22
2022-12-03T02:16:45.188Z,-2.18
2022-12-03T02:19:29.823Z,-2.19
2022-12-03T02:22:19.234Z,-2.25
2022-12-03T02:25:12.393Z,-2.21
2022-12-03T02:27:39.830Z,-2.24
2022-12-03T02:30:07.863Z,-2.14
2022-12-03T02:32:34.460Z,-2.28
2022-12-03T02:35:01.018Z,-2.28
2022-12-03T02:37:34.088Z,-2.11
2022-12-03T02:40:07.865Z,-2.16
2022-12-03T02:42:37.329Z,-2.18
2022-12-03T02:45:07.092Z,-2.26
2022-12-03T02:47:41.792Z,-2.24
2022-12-03T02:50:10.499Z,-2.28
2022-12-03T02:52:37.255Z,-2.20
2022-12-03T02:55:07.254Z,-2.13
2022-12-03T02:57:36.068Z,-2.28
2022-12-03T03:00:02.643Z,-2.18
2022-12-03T03:02:29.235Z,-2.17
2022-12-03T03:04:56.949Z,-2.27
2022-12-03T03:07:23.430Z,-2.26
2022-12-03T03:09:50.027Z,-2.33
2022-12-03T03:12:16.939Z,-2.24
2022-12-03T03:14:43.561Z,-2.21
2022-12-03T03:17:10.155Z,-2.14
2022-12-03T03:19:36.625Z,-2.25
2022-12-03T03:22:03.232Z,-2.27
2022-12-03T03:24:29.815Z,-2.30
2022-12-03T03:26:56.420Z,-2.35
2022-12-03T03:29:22.961Z,-2.22
2022-12-03T03:31:49.803Z,-2.38
2022-12-03T03:34:17.510Z,-2.35
2022-12-03T03:36:45.041Z,-2.31
2022-12-03T03:39:12.437Z,-2.36
2022-12-03T03:41:39.049Z,-2.37
2022-12-03T03:44:07.501Z,-2.38
2022-12-03T03:46:35.020Z,-2.35
2022-12-03T03:49:02.799Z,-2.34
2022-12-03T03:51:29.662Z,-2.34
2022-12-03T03:53:56.597Z,-2.26
2022-12-03T03:56:23.617Z,-2.21
2022-12-03T03:58:50.257Z,-2.30
2022-12-03T04:01:18.306Z,-2.37
2022-12-03T04:03:45.066Z,-2.29
2022-12-03T04:06:11.802Z,-2.34
2022-12-03T04:08:38.357Z,-2.24
2022-12-03T04:11:23.859Z,-2.24
2022-12-03T04:13:50.371Z,-2.30
2022-12-03T04:16:17.018Z,-2.38
2022-12-03T04:18:43.542Z,-2.13
2022-12-03T04:21:34.039Z,-2.24
2022-12-03T04:24:00.872Z,-2.17
2022-12-03T04:26:46.388Z,-2.25
2022-12-03T04:29:13.592Z,-2.14
2022-12-03T04:31:59.450Z,-2.27
2022-12-03T04:34:44.631Z,-2.28
2022-12-03T04:37:11.544Z,-2.33
2022-12-03T04:39:38.026Z,-2.32
2022-12-03T04:42:05.816Z,-2.41
2022-12-03T04:44:38.741Z,-2.33
2022-12-03T04:47:20.220Z,-2.14
2022-12-03T04:49:49.098Z,-2.30
2022-12-03T04:52:17.889Z,-2.32
2022-12-03T04:54:45.258Z,-2.32
2022-12-03T04:57:12.501Z,-2.04
2022-12-03T04:59:39.693Z,-2.25
2022-12-03T05:02:06.738Z,-2.20
2022-12-03T05:04:33.560Z,-2.27
2022-12-03T05:07:00.105Z,-2.11
2022-12-03T05:09:26.698Z,-2.17
2022-12-03T05:11:53.222Z,-2.10
2022-12-03T05:14:19.913Z,-2.09
2022-12-03T05:16:46.539Z,-2.27
2022-12-03T05:19:13.192Z,-2.14
2022-12-03T05:21:39.707Z,-2.25
2022-12-03T05:24:06.458Z,-2.18
2022-12-03T05:26:33.005Z,-2.27
2022-12-03T05:28:59.504Z,-2.40
2022-12-03T05:31:26.143Z,-2.26
2022-12-03T05:33:52.769Z,-2.22
2022-12-03T05:36:19.285Z,-2.25
2022-12-03T05:38:45.785Z,-2.33
2022-12-03T05:41:30.693Z,-2.26
2022-12-03T05:43:57.296Z,-2.19
2022-12-03T05:46:23.965Z,-2.26
2022-12-03T05:48:50.639Z,-2.32
2022-12-03T05:51:17.186Z,-2.30
2022-12-03T05:53:43.709Z,-2.36
2022-12-03T05:56:10.292Z,-2.35
2022-12-03T05:58:36.794Z,-2.25
2022-12-03T06:01:03.371Z,-2.30
2022-12-03T06:03:30.029Z,-2.32
2022-12-03T06:05:56.595Z,-2.36
2022-12-03T06:08:23.134Z,-2.36
2022-12-03T06:10:49.691Z,-2.35
2022-12-03T06:13:16.232Z,-2.33
2022-12-03T06:15:44.095Z,-2.39
2022-12-03T06:18:11.092Z,-2.26
2022-12-03T06:20:37.809Z,-2.33
2022-12-03T06:23:04.253Z,-2.34
2022-12-03T06:25:30.781Z,-2.25
2022-12-03T06:27:57.363Z,-2.28
2022-12-03T06:30:24.007Z,-2.19
2022-12-03T06:32:50.492Z,-2.18
2022-12-03T06:35:17.218Z,-2.21
2022-12-03T06:37:43.782Z,-2.11
2022-12-03T06:40:10.893Z,-2.01
2022-12-03T06:42:37.433Z,-2.21
2022-12-03T06:45:04.459Z,-2.10
2022-12-03T06:47:30.953Z,-2.23
2022-12-03T06:49:57.468Z,-2.19
2022-12-03T06:52:24.080Z,-2.16
2022-12-03T06:54:50.809Z,-2.22
2022-12-03T06:57:17.491Z,-2.03
2022-12-03T06:59:44.015Z,-2.12
2022-12-03T07:02:12.450Z,-2.01
2022-12-03T07:04:42.117Z,-2.08
2022-12-03T07:07:12.573Z,-2.14
2022-12-03T07:09:39.209Z,-2.16
2022-12-03T07:12:06.018Z,-2.06
2022-12-03T07:14:32.572Z,-2.21
2022-12-03T07:16:59.181Z,-2.14
2022-12-03T07:19:32.099Z,-2.14
2022-12-03T07:21:59.278Z,-2.01
2022-12-03T07:24:25.863Z,-2.08
2022-12-03T07:26:52.406Z,-2.09
2022-12-03T07:29:19.087Z,-2.09
2022-12-03T07:31:45.976Z,-1.98
2022-12-03T07:34:12.555Z,-2.02
2022-12-03T07:36:39.120Z,-2.02
2022-12-03T07:39:05.668Z,-2.14
2022-12-03T07:41:32.347Z,-1.99
2022-12-03T07:43:58.946Z,-2.05
2022-12-03T07:46:25.645Z,-2.08
2022-12-03T07:48:52.256Z,-1.98
2022-12-03T07:51:18.956Z,-1.94
2022-12-03T07:53:45.514Z,-1.97
2022-12-03T07:56:12.233Z,-2.07
2022-12-03T07:58:38.794Z,-2.11
2022-12-03T08:01:05.704Z,-2.03
2022-12-03T08:03:32.285Z,-1.92
2022-12-03T08:05:58.653Z,-1.90
2022-12-03T08:08:25.085Z,-1.95
2022-12-03T08:10:51.672Z,-1.97
2022-12-03T08:13:19.089Z,-1.80
2022-12-03T08:15:46.093Z,-1.88
2022-12-03T08:18:16.105Z,-1.63
2022-12-03T08:20:43.879Z,-1.78
2022-12-03T08:23:30.636Z,-1.64
2022-12-03T08:26:02.085Z,-1.62
2022-12-03T08:28:28.682Z,-1.69
2022-12-03T08:31:13.662Z,-1.52
2022-12-03T08:33:41.739Z,-1.58
2022-12-03T08:36:13.859Z,-1.89
2022-12-03T08:38:40.271Z,-1.86
2022-12-03T08:41:14.936Z,-1.75
2022-12-03T08:43:43.713Z,-1.59
2022-12-03T08:46:19.057Z,-1.50
2022-12-03T08:48:49.131Z,-1.48
2022-12-03T08:51:20.592Z,-1.57
2022-12-03T08:53:58.135Z,-1.43
2022-12-03T08:56:30.002Z,-1.33
2022-12-03T08:59:15.618Z,-1.50
2022-12-03T09:01:44.319Z,-1.43
2022-12-03T09:04:32.041Z,-1.24
2022-12-03T09:06:58.668Z,-1.26
2022-12-03T09:09:25.544Z,-1.28
2022-12-03T09:11:52.519Z,-1.32
2022-12-03T09:14:21.211Z,-1.40
2022-12-03T09:16:48.000Z,-1.38
2022-12-03T09:19:14.525Z,-1.36
2022-12-03T09:21:40.970Z,-1.29
2022-12-03T09:24:07.574Z,-1.21
2022-12-03T09:26:34.173Z,-1.40
2022-12-03T09:29:00.611Z,-1.36
2022-12-03T09:31:27.166Z,-1.42
2022-12-03T09:33:53.858Z,-1.25
2022-12-03T09:36:20.474Z,-1.32
2022-12-03T09:38:48.213Z,-1.38
2022-12-03T09:41:15.120Z,-1.18
2022-12-03T09:46:29.791Z,-1.06
2022-12-03T09:48:56.720Z,-0.90
2022-12-03T09:51:29.640Z,-0.96
2022-12-03T09:53:56.119Z,-1.06
2022-12-03T09:56:23.518Z,-1.06
2022-12-03T09:58:50.178Z,-0.92
2022-12-03T10:01:17.865Z,-1.08
2022-12-03T10:03:47.942Z,-1.06
2022-12-03T10:06:18.319Z,-1.08
2022-12-03T10:08:48.376Z,-1.05
2022-12-03T10:11:16.165Z,-1.17
2022-12-03T10:13:43.214Z,-1.05
2022-12-03T10:16:13.276Z,-1.09
2022-12-03T10:18:42.284Z,-1.10
2022-12-03T10:21:24.011Z,-1.18
2022-12-03T10:24:10.465Z,-1.18
2022-12-03T10:26:40.702Z,-0.93
2022-12-03T10:29:32.885Z,-0.96
2022-12-03T10:32:06.804Z,-0.90
2022-12-03T10:34:36.238Z,-0.51
2022-12-03T10:37:22.572Z,-0.64
2022-12-03T10:40:09.885Z,-0.65
2022-12-03T10:42:37.446Z,-0.62
2022-12-03T10:45:23.206Z,-0.61
2022-12-03T10:48:05.727Z,-0.73
2022-12-03T10:50:33.292Z,-0.69
2022-12-03T10:52:59.809Z,-0.71
2022-12-03T10:55:28.977Z,-0.54
2022-12-03T10:57:55.513Z,-0.43
2022-12-03T11:00:22.827Z,-0.56
2022-12-03T11:02:56.500Z,-0.55
2022-12-03T11:05:27.469Z,-0.54
2022-12-03T11:07:54.398Z,-0.68
2022-12-03T11:10:21.339Z,-0.71
2022-12-03T11:13:25.687Z,-0.67
2022-12-03T11:15:53.201Z,-0.72
2022-12-03T11:18:38.045Z,-0.71
2022-12-03T11:21:08.074Z,-0.63
2022-12-03T11:23:47.002Z,-0.65
2022-12-03T11:26:33.830Z,-0.68
2022-12-03T11:29:00.415Z,-0.70
2022-12-03T11:31:44.893Z,-0.65
2022-12-03T11:34:20.869Z,-0.57
2022-12-03T11:37:12.502Z,-0.40
2022-12-03T11:39:45.364Z,-0.51
2022-12-03T11:42:27.018Z,-0.47
2022-12-03T11:45:02.706Z,-0.39
2022-12-03T11:47:39.610Z,-0.50
2022-12-03T11:50:23.630Z,-0.39
2022-12-03T11:52:55.589Z,-0.47
2022-12-03T11:55:28.564Z,-0.57
2022-12-03T11:58:03.857Z,-0.40
2022-12-03T12:00:30.552Z,-0.26
2022-12-03T12:02:58.621Z,-0.27
2022-12-03T12:05:27.245Z,-0.39
2022-12-03T12:07:55.593Z,-0.38
2022-12-03T12:10:41.123Z,-0.24
2022-12-03T12:13:25.619Z,-0.33
2022-12-03T12:15:52.203Z,-0.34
2022-12-03T12:18:36.895Z,-0.31
2022-12-03T12:21:43.227Z,-0.17
2022-12-03T12:24:40.093Z,-0.24
2022-12-03T12:27:20.414Z,-0.07
2022-12-03T12:29:52.981Z,-0.06
2022-12-03T12:32:24.996Z,-0.34
2022-12-03T12:34:55.176Z,-0.17
2022-12-03T12:37:28.232Z,-0.07
2022-12-03T12:39:57.458Z,-0.09
2022-12-03T12:42:36.920Z,-0.03
2022-12-03T12:45:21.419Z,0.13
2022-12-03T12:48:03.150Z,0.15
2022-12-03T12:50:31.209Z,0.13
2022-12-03T12:53:02.748Z,0.31
2022-12-03T12:55:29.302Z,0.15
2022-12-03T12:58:03.411Z,0.08
2022-12-03T13:00:30.145Z,0.03
2022-12-03T13:03:00.975Z,-0.17
2022-12-03T13:05:44.935Z,-0.16
2022-12-03T13:08:29.052Z,-0.18
2022-12-03T13:10:57.827Z,-0.31
2022-12-03T13:13:43.367Z,-0.19
2022-12-03T13:16:19.357Z,-0.29
2022-12-03T13:18:49.004Z,-0.23
2022-12-03T13:21:21.406Z,-0.35
2022-12-03T13:23:49.596Z,-0.24
2022-12-03T13:26:38.990Z,-0.34
2022-12-03T13:29:12.209Z,-0.18
2022-12-03T13:31:43.440Z,-0.40
2022-12-03T13:34:21.236Z,-0.40
2022-12-03T13:39:37.923Z,-0.32
2022-12-03T13:42:45.746Z,-0.57
2022-12-03T13:45:15.362Z,-0.44
2022-12-03T13:47:45.841Z,-0.47
2022-12-03T13:50:27.533Z,-0.44
2022-12-03T13:52:55.049Z,-0.54
2022-12-03T13:55:31.773Z,-0.44
2022-12-03T13:57:58.901Z,-0.42
2022-12-03T14:00:25.428Z,-0.36
2022-12-03T14:02:51.990Z,-0.44
2022-12-03T14:05:19.101Z,-0.56
2022-12-03T14:07:45.608Z,-0.55
2022-12-03T14:10:12.945Z,-0.64
2022-12-03T14:12:39.485Z,-0.53
2022-12-03T14:15:07.139Z,-0.58
2022-12-03T14:17:33.716Z,-0.69
2022-12-03T14:20:01.425Z,-0.67
2022-12-03T14:22:28.046Z,-0.68
2022-12-03T14:24:55.412Z,-0.61
2022-12-03T14:27:22.410Z,-0.63
2022-12-03T14:29:48.949Z,-0.60
2022-12-03T14:32:15.521Z,-0.58
2022-12-03T14:34:42.347Z,-0.49
2022-12-03T14:37:08.819Z,-0.64
2022-12-03T14:39:35.325Z,-0.58
2022-12-03T14:42:14.023Z,-0.61
2022-12-03T14:44:51.294Z,-0.61
2022-12-03T14:47:22.421Z,-0.50
2022-12-03T14:49:50.484Z,-0.57
2022-12-03T14:52:17.772Z,-0.66
2022-12-03T14:54:44.543Z,-0.76
2022-12-03T14:57:12.868Z,-0.62
2022-12-03T14:59:41.641Z,-0.76
2022-12-03T15:02:09.708Z,-0.61
2022-12-03T15:04:36.400Z,-0.63
2022-12-03T15:07:03.656Z,-0.57
2022-12-03T15:09:30.131Z,-0.56
2022-12-03T15:11:56.735Z,-0.45
2022-12-03T15:14:23.308Z,-0.49
2022-12-03T15:16:50.035Z,-0.68
2022-12-03T15:19:17.260Z,-0.64
2022-12-03T15:21:43.810Z,-0.63
2022-12-03T15:24:10.807Z,-0.73
2022-12-03T15:26:37.531Z,-0.71
2022-12-03T15:29:04.058Z,-0.59
2022-12-03T15:31:30.712Z,-0.58
2022-12-03T15:33:57.272Z,-0.60
2022-12-03T15:36:23.819Z,-0.57
2022-12-03T15:38:50.449Z,-0.63
2022-12-03T15:41:29.582Z,-0.47
2022-12-03T15:43:58.492Z,-0.50
2022-12-03T15:46:26.221Z,-0.39
2022-12-03T15:48:53.077Z,-0.43
2022-12-03T15:51:19.677Z,-0.52
2022-12-03T15:53:46.306Z,-0.59
2022-12-03T15:56:12.918Z,-0.49
2022-12-03T15:58:40.154Z,-0.48
2022-12-03T16:01:08.105Z,-0.49
2022-12-03T16:03:35.353Z,-0.41
2022-12-03T16:06:02.139Z,-0.41
2022-12-03T16:08:28.760Z,-0.52
2022-12-03T16:10:55.565Z,-0.46
2022-12-03T16:13:22.107Z,-0.31
2022-12-03T16:15:48.559Z,-0.42
2022-12-03T16:18:15.081Z,-0.40
2022-12-03T16:20:41.664Z,-0.38
2022-12-03T16:23:08.335Z,-0.38
2022-12-03T16:25:34.904Z,-0.50
2022-12-03T16:28:01.288Z,-0.45
2022-12-03T16:30:27.752Z,-0.44
2022-12-03T16:32:54.249Z,-0.44
2022-12-03T16:35:20.643Z,-0.32
2022-12-03T16:37:47.122Z,-0.29
2022-12-03T16:40:13.663Z,-0.41
2022-12-03T16:42:40.770Z,-0.39
2022-12-03T16:45:08.127Z,-0.31
2022-12-03T16:47:35.305Z,-0.33
2022-12-03T16:50:03.953Z,-0.34
2022-12-03T16:52:30.544Z,-0.39
2022-12-03T16:54:57.041Z,-0.28
2022-12-03T16:57:24.383Z,-0.25
2022-12-03T16:59:53.304Z,-0.16
2022-12-03T17:02:20.172Z,-0.19
2022-12-03T17:04:46.594Z,-0.16
2022-12-03T17:07:12.938Z,-0.23
2022-12-03T17:09:39.438Z,-0.27
2022-12-03T17:12:06.168Z,-0.29
2022-12-03T17:14:33.564Z,-0.30
2022-12-03T17:17:00.171Z,-0.21
2022-12-03T17:19:26.631Z,-0.21
2022-12-03T17:21:54.006Z,-0.26
2022-12-03T17:24:21.430Z,-0.29
2022-12-03T17:26:48.071Z,-0.32
2022-12-03T17:29:14.501Z,-0.29
2022-12-03T17:31:42.464Z,-0.24
2022-12-03T17:34:09.369Z,-0.31
2022-12-03T17:36:35.852Z,-0.28
2022-12-03T17:39:02.266Z,-0.37
2022-12-03T17:41:28.653Z,-0.36
2022-12-03T17:43:55.072Z,-0.30
2022-12-03T17:46:21.621Z,-0.33
2022-12-03T17:48:48.064Z,-0.27
2022-12-03T17:51:14.677Z,-0.36
2022-12-03T17:53:41.163Z,-0.37
2022-12-03T17:56:07.646Z,-0.32
2022-12-03T17:58:34.671Z,-0.25
2022-12-03T18:01:03.169Z,-0.19
2022-12-03T18:03:30.317Z,-0.19
2022-12-03T18:05:56.858Z,-0.21
2022-12-03T18:08:23.334Z,-0.23
2022-12-03T18:10:50.160Z,-0.32
2022-12-03T18:13:16.578Z,-0.31
2022-12-03T18:15:43.020Z,-0.26
2022-12-03T18:18:09.450Z,-0.19
2022-12-03T18:20:35.962Z,-0.18
2022-12-03T18:23:02.539Z,-0.18
2022-12-03T18:25:29.619Z,-0.16
2022-12-03T18:27:56.406Z,-0.19
2022-12-03T18:30:22.909Z,-0.18
2022-12-03T18:32:50.607Z,-0.19
2022-12-03T18:35:17.113Z,-0.10
2022-12-03T18:37:43.750Z,-0.08
2022-12-03T18:40:17.898Z,-0.08
2022-12-03T18:42:44.348Z,0.05
2022-12-03T18:45:12.854Z,-0.14
2022-12-03T18:47:39.285Z,-0.13
2022-12-03T18:50:07.234Z,-0.02
2022-12-03T18:52:33.675Z,-0.02
2022-12-03T18:55:00.063Z,-0.07
2022-12-03T18:57:26.714Z,0.02
2022-12-03T18:59:53.447Z,-0.06
2022-12-03T19:03:01.956Z,0.06
2022-12-03T19:05:10.402Z,-0.06
2022-12-03T19:07:37.158Z,-0.01
2022-12-03T19:10:04.340Z,0.04
2022-12-03T19:12:31.196Z,-0.09
2022-12-03T19:14:57.555Z,0.03
2022-12-03T19:17:24.039Z,-0.01
2022-12-03T19:19:50.470Z,-0.02
2022-12-03T19:22:16.856Z,0.06
2022-12-03T19:24:43.783Z,0.03
2022-12-03T19:27:10.294Z,0.03
2022-12-03T19:29:36.732Z,0.07
2022-12-03T19:32:04.016Z,-0.04
2022-12-03T19:34:30.928Z,0.10
2022-12-03T19:36:57.884Z,-0.01
2022-12-03T19:39:24.771Z,-0.02
2022-12-03T19:41:51.393Z,0.02
2022-12-03T19:44:18.923Z,0.01
2022-12-03T19:46:45.374Z,0.07
2022-12-03T19:49:11.965Z,0.02
2022-12-03T19:51:38.399Z,-0.05
2022-12-03T19:54:07.316Z,0.03
2022-12-03T19:56:33.880Z,-0.11
2022-12-03T19:59:00.348Z,0.04
2022-12-03T20:01:30.105Z,0.04
2022-12-03T20:03:58.929Z,-0.05
2022-12-03T20:06:28.519Z,-0.09
2022-12-03T20:08:59.710Z,-0.12
2022-12-03T20:11:29.372Z,-0.05
2022-12-03T20:13:59.180Z,0.00
2022-12-03T20:16:26.514Z,-0.02
2022-12-03T20:18:57.218Z,-0.07
2022-12-03T20:21:24.205Z,-0.01
2022-12-03T20:23:50.779Z,-0.04
2022-12-03T20:26:19.667Z,0.02
2022-12-03T20:28:47.985Z,-0.12
2022-12-03T20:31:17.064Z,-0.13
2022-12-03T20:33:49.034Z,-0.07
2022-12-03T20:36:16.729Z,-0.11
2022-12-03T20:38:43.158Z,-0.06
2022-12-03T20:41:12.431Z,-0.06
2022-12-03T20:43:39.155Z,-0.06
2022-12-03T20:46:07.638Z,-0.02
2022-12-03T20:48:34.361Z,-0.11
2022-12-03T20:51:06.774Z,-0.06
2022-12-03T20:53:33.550Z,-0.01
2022-12-03T20:56:01.332Z,-0.10
2022-12-03T20:58:29.411Z,-0.05
2022-12-03T21:00:55.955Z,0.04
2022-12-03T21:03:22.497Z,-0.01
2022-12-03T21:05:49.476Z,-0.06
2022-12-03T21:08:15.906Z,-0.09
2022-12-03T21:10:45.537Z,-0.10
2022-12-03T21:13:16.649Z,-0.09
2022-12-03T21:15:43.985Z,-0.07
2022-12-03T21:18:12.252Z,-0.06
2022-12-03T21:20:46.352Z,-0.10
2022-12-03T21:23:13.975Z,-0.09
2022-12-03T21:25:40.538Z,-0.28
2022-12-03T21:28:08.699Z,-0.19
2022-12-03T21:30:38.487Z,-0.21
2022-12-03T21:33:05.959Z,-0.33
2022-12-03T21:35:35.517Z,-0.33
2022-12-03T21:38:01.982Z,-0.27
2022-12-03T21:40:28.336Z,-0.41
2022-12-03T21:42:54.841Z,-0.38
2022-12-03T21:45:24.913Z,-0.29
2022-12-03T21:47:51.466Z,-0.29
2022-12-03T21:50:17.982Z,-0.27
2022-12-03T21:52:44.397Z,-0.27
2022-12-03T21:55:10.833Z,-0.32
2022-12-03T21:57:37.629Z,-0.31
2022-12-03T22:00:07.596Z,-0.25
2022-12-03T22:02:34.407Z,-0.24
2022-12-03T22:05:00.853Z,-0.17
2022-12-03T22:07:27.356Z,-0.10
2022-12-03T22:09:54.005Z,-0.15
2022-12-03T22:12:20.716Z,-0.17
2022-12-03T22:14:47.498Z,-0.17
2022-12-03T22:17:13.969Z,-0.15
2022-12-03T22:19:40.439Z,-0.17
2022-12-03T22:22:06.922Z,-0.18
2022-12-03T22:24:33.406Z,-0.19
2022-12-03T22:26:59.912Z,-0.17
2022-12-03T22:29:26.351Z,-0.24
2022-12-03T22:31:52.799Z,-0.18
2022-12-03T22:34:19.231Z,-0.21
2022-12-03T22:36:45.588Z,-0.18
2022-12-03T22:39:11.953Z,-0.22
2022-12-03T22:41:38.918Z,-0.17
2022-12-03T22:44:05.508Z,-0.08
2022-12-03T22:46:32.083Z,-0.11
2022-12-03T22:49:03.474Z,-0.16
2022-12-03T22:51:33.676Z,-0.14
2022-12-03T22:54:01.695Z,-0.15
2022-12-03T22:56:30.377Z,-0.12
2022-12-03T22:58:57.695Z,-0.13
2022-12-03T23:01:26.817Z,-0.03
2022-12-03T23:03:53.749Z,-0.01
2022-12-03T23:06:20.711Z,0.00
2022-12-03T23:08:47.672Z,-0.03
2022-12-03T23:11:14.637Z,0.04
2022-12-03T23:13:41.421Z,0.04
2022-12-03T23:16:13.067Z,0.04
2022-12-03T23:18:39.583Z,0.06
2022-12-03T23:21:06.140Z,0.04
2022-12-03T23:23:32.561Z,-0.01
2022-12-03T23:26:10.580Z,-0.06
2022-12-03T23:28:38.748Z,0.01
2022-12-03T23:31:06.089Z,-0.04
2022-12-03T23:33:38.024Z,0.01
2022-12-03T23:36:08.085Z,0.09
2022-12-03T23:38:34.462Z,-0.02
2022-12-03T23:41:05.833Z,-0.04
2022-12-03T23:43:32.309Z,-0.06
2022-12-03T23:46:10.570Z,-0.09
2022-12-03T23:48:37.371Z,0.06
2022-12-03T23:51:08.660Z,-0.20
2022-12-03T23:53:36.336Z,-0.16
2022-12-03T23:56:11.451Z,-0.03
2022-12-03T23:58:38.631Z,-0.08
